Sentry Page Protection

Latest Glasgow METAR Decoded

What is a METAR?

Raw METAR: EGPF 120620Z 24002KT CAVOK M05/M05 Q1027
Time Published: Mon Apr 12 06:20:00 2021

Altimeter: 1027 hPa (30.33 inHg)
Clouds: Sky clear
Visibility: 10km (6.2sm)
Dewpoint: -5°C (23°F)
Temperature: -5°C (23°F)
Wind: WSW-240 at 2kt

Data pulled from AVWX API.

Customise webcam positions

Apply changes